createdAt,value
2019-01-31T00:05:24.386Z,96.80
2019-01-31T00:10:46.616Z,96.60
2019-01-31T00:16:36.454Z,97.00
2019-01-31T00:22:16.224Z,97.30
2019-01-31T00:27:57.732Z,97.20
2019-01-31T00:33:43.700Z,96.90
2019-01-31T00:39:30.543Z,97.10
2019-01-31T00:45:15.945Z,97.30
2019-01-31T00:50:31.646Z,97.20
2019-01-31T00:56:00.104Z,97.10
2019-01-31T01:02:01.815Z,97.00
2019-01-31T01:07:36.247Z,97.00
2019-01-31T01:13:05.859Z,97.30
2019-01-31T01:18:31.307Z,97.00
2019-01-31T01:24:21.673Z,97.20
2019-01-31T01:30:04.350Z,97.20
2019-01-31T01:35:42.454Z,97.40
2019-01-31T01:41:12.027Z,97.40
2019-01-31T01:46:51.966Z,97.10
2019-01-31T01:52:48.041Z,97.90
2019-01-31T01:58:22.823Z,98.00
2019-01-31T02:04:11.316Z,98.00
2019-01-31T02:09:51.481Z,98.00
2019-01-31T02:15:28.205Z,97.90
2019-01-31T02:21:19.465Z,97.90
2019-01-31T02:27:18.061Z,98.20
2019-01-31T02:32:52.271Z,97.70
2019-01-31T02:38:11.743Z,97.60
2019-01-31T02:44:03.093Z,98.10
2019-01-31T02:49:37.875Z,98.30
2019-01-31T02:55:21.684Z,98.00
2019-01-31T03:01:00.639Z,98.10
2019-01-31T03:06:25.775Z,97.90
2019-01-31T03:12:18.571Z,98.10
2019-01-31T03:18:08.229Z,98.20
2019-01-31T03:23:55.191Z,97.80
2019-01-31T03:29:59.942Z,98.10
2019-01-31T03:35:20.896Z,97.90
2019-01-31T03:41:03.736Z,97.80
2019-01-31T03:46:41.902Z,98.00
2019-01-31T03:52:38.896Z,98.60
2019-01-31T03:58:31.357Z,98.40
2019-01-31T04:03:46.376Z,98.40
2019-01-31T04:08:52.457Z,98.30
2019-01-31T04:13:58.471Z,97.70
2019-01-31T04:19:04.764Z,97.60
2019-01-31T04:24:10.888Z,97.70
2019-01-31T04:29:16.776Z,97.50
2019-01-31T04:34:22.744Z,97.50
2019-01-31T04:39:28.760Z,97.20
2019-01-31T04:44:34.867Z,97.80
2019-01-31T04:49:41.063Z,98.50
2019-01-31T04:54:47.163Z,98.00
2019-01-31T04:59:53.232Z,97.50
2019-01-31T05:04:59.397Z,97.90
2019-01-31T05:10:07.333Z,97.90
2019-01-31T05:15:14.498Z,98.10
2019-01-31T05:20:20.695Z,97.80
2019-01-31T05:25:26.695Z,97.60
2019-01-31T05:30:32.771Z,97.80
2019-01-31T05:35:38.933Z,97.70
2019-01-31T05:40:55.317Z,97.70
2019-01-31T05:45:52.545Z,98.20
2019-01-31T05:50:58.471Z,98.30
2019-01-31T05:56:04.664Z,97.80
2019-01-31T06:01:10.832Z,98.00
2019-01-31T06:06:17.005Z,98.30
2019-01-31T06:11:23.117Z,97.90
2019-01-31T06:16:29.172Z,97.70
2019-01-31T06:21:35.220Z,97.80
2019-01-31T06:26:41.223Z,98.00
2019-01-31T06:31:47.173Z,98.00
2019-01-31T06:36:53.263Z,98.00
2019-01-31T06:41:59.428Z,97.90
2019-01-31T06:47:05.403Z,97.70
2019-01-31T06:52:11.483Z,98.00
2019-01-31T06:57:17.591Z,98.20
2019-01-31T07:02:23.728Z,98.00
2019-01-31T07:07:29.912Z,97.60
2019-01-31T07:12:35.881Z,97.80
2019-01-31T07:17:41.888Z,98.00
2019-01-31T07:22:48.000Z,98.00
2019-01-31T07:27:54.208Z,97.80
2019-01-31T07:33:00.330Z,97.70
2019-01-31T07:38:06.359Z,98.00
2019-01-31T07:43:12.409Z,98.10
2019-01-31T07:48:18.492Z,98.10
2019-01-31T07:53:24.562Z,98.00
2019-01-31T07:58:30.602Z,98.20
2019-01-31T08:03:36.717Z,97.90
2019-01-31T08:08:42.578Z,97.80
2019-01-31T08:13:48.581Z,97.50
2019-01-31T08:18:55.571Z,97.40
2019-01-31T08:24:01.562Z,97.60
2019-01-31T08:29:07.481Z,97.60
2019-01-31T08:34:13.567Z,97.20
2019-01-31T08:39:19.644Z,96.80
2019-01-31T08:44:25.740Z,96.80
2019-01-31T08:49:31.733Z,96.80
2019-01-31T08:54:37.708Z,96.80
2019-01-31T08:59:43.765Z,96.40
2019-01-31T09:04:49.918Z,96.30
2019-01-31T09:09:56.005Z,95.70
2019-01-31T09:15:02.085Z,94.50
2019-01-31T09:20:10.105Z,91.40
2019-01-31T09:25:43.292Z,86.00
2019-01-31T09:31:25.474Z,70.20
2019-01-31T09:37:12.301Z,69.90
2019-01-31T09:42:32.757Z,76.70
2019-01-31T09:48:15.238Z,83.80
2019-01-31T09:54:02.177Z,83.80
2019-01-31T09:59:39.741Z,83.50
2019-01-31T10:05:23.694Z,85.60
2019-01-31T10:10:58.063Z,84.90
2019-01-31T10:16:19.687Z,86.10
2019-01-31T10:22:09.479Z,86.20
2019-01-31T10:27:55.435Z,86.60
2019-01-31T10:33:34.205Z,85.00
2019-01-31T10:39:13.547Z,84.60
2019-01-31T10:44:37.468Z,83.80
2019-01-31T10:50:14.498Z,83.80
2019-01-31T10:56:19.479Z,84.30
2019-01-31T11:02:14.655Z,83.80
2019-01-31T11:07:54.844Z,83.30
2019-01-31T11:13:25.491Z,83.00
2019-01-31T11:19:12.831Z,82.70
2019-01-31T11:24:26.585Z,81.60
2019-01-31T11:30:19.057Z,80.50
2019-01-31T11:36:04.413Z,80.30
2019-01-31T11:41:41.042Z,78.90
2019-01-31T11:47:29.308Z,77.50
2019-01-31T11:53:01.914Z,76.80
2019-01-31T11:58:47.197Z,76.70
2019-01-31T12:03:56.035Z,75.50
2019-01-31T12:09:02.182Z,77.60
2019-01-31T12:14:08.387Z,76.50
2019-01-31T12:19:14.631Z,77.90
2019-01-31T12:24:20.729Z,73.80
2019-01-31T12:29:26.706Z,76.40
2019-01-31T12:34:32.679Z,76.90
2019-01-31T12:39:38.661Z,76.40
2019-01-31T12:44:44.713Z,80.30
2019-01-31T12:49:50.795Z,79.40
2019-01-31T12:54:56.858Z,77.80
2019-01-31T13:00:02.848Z,75.40
2019-01-31T13:05:10.738Z,78.30
2019-01-31T13:10:17.247Z,79.60
2019-01-31T13:15:23.220Z,80.00
2019-01-31T13:20:29.204Z,79.70
2019-01-31T13:25:36.301Z,77.50
2019-01-31T13:30:42.249Z,78.60
2019-01-31T13:35:48.227Z,78.80
2019-01-31T13:40:54.213Z,79.90
2019-01-31T13:46:00.296Z,78.90
2019-01-31T13:51:07.615Z,79.80
2019-01-31T13:56:13.746Z,74.30
2019-01-31T14:01:19.674Z,78.30
2019-01-31T14:06:25.598Z,79.90
2019-01-31T14:11:31.563Z,81.70
2019-01-31T14:16:47.049Z,81.70
2019-01-31T14:21:45.348Z,83.50
2019-01-31T14:26:51.333Z,85.50
2019-01-31T14:31:57.496Z,86.80
2019-01-31T14:37:03.573Z,86.20
2019-01-31T14:42:09.657Z,88.10
2019-01-31T14:47:15.624Z,88.60
2019-01-31T14:52:21.691Z,86.70
2019-01-31T14:57:27.780Z,86.70
2019-01-31T15:02:33.842Z,88.90
2019-01-31T15:07:39.804Z,90.10
2019-01-31T15:12:46.050Z,89.80
2019-01-31T15:17:53.153Z,90.80
2019-01-31T15:22:59.376Z,91.40
2019-01-31T15:28:05.869Z,92.10
2019-01-31T15:33:13.950Z,92.50
2019-01-31T15:38:19.958Z,93.00
2019-01-31T15:43:26.031Z,93.20
2019-01-31T15:48:32.118Z,93.60
2019-01-31T15:53:38.468Z,93.50
2019-01-31T15:58:44.658Z,93.50
2019-01-31T16:03:50.948Z,93.40
2019-01-31T16:08:57.332Z,94.10
2019-01-31T16:14:03.460Z,93.70
2019-01-31T16:19:09.594Z,94.30
2019-01-31T16:24:15.560Z,94.40
2019-01-31T16:29:21.669Z,94.70
2019-01-31T16:34:27.821Z,94.40
2019-01-31T16:39:33.976Z,95.10
2019-01-31T16:44:40.144Z,94.90
2019-01-31T16:49:46.274Z,95.30
2019-01-31T16:54:52.300Z,95.20
2019-01-31T16:59:58.508Z,94.90
2019-01-31T17:05:07.163Z,95.10
2019-01-31T17:10:13.543Z,95.20
2019-01-31T17:15:20.393Z,95.40
2019-01-31T17:20:34.776Z,95.60
2019-01-31T17:25:40.860Z,95.70
2019-01-31T17:30:46.903Z,95.30
2019-01-31T17:35:52.976Z,95.80
2019-01-31T17:40:59.153Z,95.90
2019-01-31T17:46:06.435Z,95.90
2019-01-31T17:51:14.153Z,96.00
2019-01-31T17:56:20.165Z,96.10
2019-01-31T18:01:26.222Z,96.50
2019-01-31T18:06:32.413Z,96.80
2019-01-31T18:11:38.687Z,97.10
2019-01-31T18:16:45.789Z,96.60
2019-01-31T18:21:51.751Z,96.30
2019-01-31T18:26:57.710Z,96.70
2019-01-31T18:32:03.800Z,97.10
2019-01-31T18:37:09.961Z,97.00
2019-01-31T18:42:16.084Z,97.10
2019-01-31T18:47:22.110Z,97.20
2019-01-31T18:52:28.199Z,96.90
2019-01-31T18:57:34.791Z,97.20
2019-01-31T19:02:40.795Z,97.30
2019-01-31T19:07:47.143Z,97.10
2019-01-31T19:12:53.533Z,96.40
2019-01-31T19:18:06.049Z,96.70
2019-01-31T19:23:10.499Z,96.80
2019-01-31T19:28:16.715Z,96.50
2019-01-31T19:33:22.822Z,96.80
2019-01-31T19:38:29.028Z,97.10
2019-01-31T19:43:35.106Z,97.40
2019-01-31T19:48:41.073Z,97.50
2019-01-31T19:53:48.463Z,97.40
2019-01-31T19:58:54.543Z,97.40
2019-01-31T20:04:00.694Z,97.40
2019-01-31T20:09:17.156Z,97.60
2019-01-31T20:14:23.399Z,97.70
2019-01-31T20:19:29.368Z,98.30
2019-01-31T20:24:35.449Z,98.40
2019-01-31T20:29:41.335Z,98.20
2019-01-31T20:34:47.415Z,98.10
2019-01-31T20:39:53.520Z,98.70
2019-01-31T20:44:59.558Z,98.30
2019-01-31T20:50:09.407Z,97.60
2019-01-31T20:55:15.897Z,97.30
2019-01-31T21:00:25.799Z,97.30
2019-01-31T21:05:32.026Z,97.10
2019-01-31T21:10:38.261Z,96.90
2019-01-31T21:15:44.196Z,96.90
2019-01-31T21:20:50.067Z,96.80
2019-01-31T21:25:56.037Z,96.90
2019-01-31T21:31:02.013Z,96.80
2019-01-31T21:36:07.989Z,96.70
2019-01-31T21:41:14.060Z,96.70
2019-01-31T21:46:20.127Z,96.60
2019-01-31T21:51:26.189Z,96.70
2019-01-31T21:56:32.170Z,96.70
2019-01-31T22:01:38.151Z,96.70
2019-01-31T22:06:44.160Z,96.80
2019-01-31T22:11:50.177Z,96.80
2019-01-31T22:16:56.268Z,96.70
2019-01-31T22:22:02.341Z,96.50
2019-01-31T22:27:08.226Z,96.80
2019-01-31T22:32:15.217Z,96.70
2019-01-31T22:37:21.466Z,96.60
2019-01-31T22:42:27.459Z,96.50
2019-01-31T22:47:33.715Z,96.40
2019-01-31T22:52:39.808Z,96.40
2019-01-31T22:57:45.752Z,96.40
2019-01-31T23:02:51.871Z,96.40
2019-01-31T23:07:58.031Z,96.20
2019-01-31T23:13:04.208Z,96.30
2019-01-31T23:18:10.282Z,96.30
2019-01-31T23:23:16.388Z,96.40
2019-01-31T23:28:22.612Z,96.70
2019-01-31T23:33:28.784Z,96.70
2019-01-31T23:38:34.888Z,97.30
2019-01-31T23:43:40.866Z,97.70
2019-01-31T23:48:46.809Z,97.50
2019-01-31T23:53:52.801Z,97.50
2019-01-31T23:58:58.882Z,97.40
